sensor_id;sensor_type;location;lat;lon;timestamp;temperature;humidity
20483;DHT22;10400;53.198;6.592;2023-06-14T00:01:38;17.80;99.90
20483;DHT22;10400;53.198;6.592;2023-06-14T00:04:04;17.70;99.90
20483;DHT22;10400;53.198;6.592;2023-06-14T00:06:34;17.70;99.90
20483;DHT22;10400;53.198;6.592;2023-06-14T00:08:59;17.70;99.90
20483;DHT22;10400;53.198;6.592;2023-06-14T00:11:25;17.60;99.90
20483;DHT22;10400;53.198;6.592;2023-06-14T00:13:52;17.60;99.90
20483;DHT22;10400;53.198;6.592;2023-06-14T00:16:18;17.50;99.90
20483;DHT22;10400;53.198;6.592;2023-06-14T00:18:45;17.50;99.90
20483;DHT22;10400;53.198;6.592;2023-06-14T00:21:11;17.40;99.90
20483;DHT22;10400;53.198;6.592;2023-06-14T00:23:37;17.40;99.90
20483;DHT22;10400;53.198;6.592;2023-06-14T00:26:03;17.30;1.00
20483;DHT22;10400;53.198;6.592;2023-06-14T00:28:29;17.40;1.00
20483;DHT22;10400;53.198;6.592;2023-06-14T00:30:54;17.40;1.00
20483;DHT22;10400;53.198;6.592;2023-06-14T00:33:20;17.30;1.00
20483;DHT22;10400;53.198;6.592;2023-06-14T00:35:46;17.20;1.00
20483;DHT22;10400;53.198;6.592;2023-06-14T00:38:12;17.20;1.00
20483;DHT22;10400;53.198;6.592;2023-06-14T00:40:38;17.10;1.00
20483;DHT22;10400;53.198;6.592;2023-06-14T00:43:04;17.10;1.00
20483;DHT22;10400;53.198;6.592;2023-06-14T00:45:29;17.10;1.00
20483;DHT22;10400;53.198;6.592;2023-06-14T00:47:56;17.10;1.00
20483;DHT22;10400;53.198;6.592;2023-06-14T00:50:23;17.00;1.00
20483;DHT22;10400;53.198;6.592;2023-06-14T00:52:49;17.00;1.00
20483;DHT22;10400;53.198;6.592;2023-06-14T00:55:15;16.90;1.00
20483;DHT22;10400;53.198;6.592;2023-06-14T00:57:41;17.00;1.00
20483;DHT22;10400;53.198;6.592;2023-06-14T01:00:08;16.90;1.00
20483;DHT22;10400;53.198;6.592;2023-06-14T01:02:38;16.80;1.00
20483;DHT22;10400;53.198;6.592;2023-06-14T01:05:05;16.80;1.00
20483;DHT22;10400;53.198;6.592;2023-06-14T01:13:05;16.70;1.00
20483;DHT22;10400;53.198;6.592;2023-06-14T01:15:33;16.60;1.00
20483;DHT22;10400;53.198;6.592;2023-06-14T01:18:02;16.60;1.00
20483;DHT22;10400;53.198;6.592;2023-06-14T01:20:33;16.60;1.00
20483;DHT22;10400;53.198;6.592;2023-06-14T01:23:02;16.60;1.00
20483;DHT22;10400;53.198;6.592;2023-06-14T01:25:27;16.60;1.00
20483;DHT22;10400;53.198;6.592;2023-06-14T01:27:59;16.60;95.40
20483;DHT22;10400;53.198;6.592;2023-06-14T01:30:26;16.50;99.90
20483;DHT22;10400;53.198;6.592;2023-06-14T01:32:53;16.40;99.90
20483;DHT22;10400;53.198;6.592;2023-06-14T01:35:20;16.50;99.90
20483;DHT22;10400;53.198;6.592;2023-06-14T01:37:47;16.40;99.90
20483;DHT22;10400;53.198;6.592;2023-06-14T01:40:15;16.40;99.90
20483;DHT22;10400;53.198;6.592;2023-06-14T01:42:42;16.40;99.90
20483;DHT22;10400;53.198;6.592;2023-06-14T01:45:10;16.40;99.90
20483;DHT22;10400;53.198;6.592;2023-06-14T01:47:36;16.40;99.90
20483;DHT22;10400;53.198;6.592;2023-06-14T01:50:03;16.40;1.00
20483;DHT22;10400;53.198;6.592;2023-06-14T01:52:29;16.30;1.00
20483;DHT22;10400;53.198;6.592;2023-06-14T01:54:55;16.30;1.00
20483;DHT22;10400;53.198;6.592;2023-06-14T01:57:21;16.30;1.00
20483;DHT22;10400;53.198;6.592;2023-06-14T01:59:47;16.30;1.00
20483;DHT22;10400;53.198;6.592;2023-06-14T02:02:14;16.30;1.00
20483;DHT22;10400;53.198;6.592;2023-06-14T02:04:40;16.20;1.00
20483;DHT22;10400;53.198;6.592;2023-06-14T02:07:06;16.20;1.00
20483;DHT22;10400;53.198;6.592;2023-06-14T02:09:33;16.10;29.70
20483;DHT22;10400;53.198;6.592;2023-06-14T02:11:59;16.10;99.90
20483;DHT22;10400;53.198;6.592;2023-06-14T02:14:25;16.10;99.90
20483;DHT22;10400;53.198;6.592;2023-06-14T02:16:51;16.00;1.00
20483;DHT22;10400;53.198;6.592;2023-06-14T02:19:19;16.00;1.00
20483;DHT22;10400;53.198;6.592;2023-06-14T02:21:46;16.00;1.00
20483;DHT22;10400;53.198;6.592;2023-06-14T02:24:12;16.00;1.00
20483;DHT22;10400;53.198;6.592;2023-06-14T02:26:38;16.10;99.90
20483;DHT22;10400;53.198;6.592;2023-06-14T02:29:04;16.00;99.90
20483;DHT22;10400;53.198;6.592;2023-06-14T02:31:31;15.90;1.00
20483;DHT22;10400;53.198;6.592;2023-06-14T02:33:57;15.90;1.00
20483;DHT22;10400;53.198;6.592;2023-06-14T02:36:23;15.90;99.90
20483;DHT22;10400;53.198;6.592;2023-06-14T02:38:48;15.90;99.90
20483;DHT22;10400;53.198;6.592;2023-06-14T02:41:14;15.90;1.00
20483;DHT22;10400;53.198;6.592;2023-06-14T02:43:40;15.90;15.50
20483;DHT22;10400;53.198;6.592;2023-06-14T02:46:05;15.90;99.90
20483;DHT22;10400;53.198;6.592;2023-06-14T02:48:32;15.90;99.90
20483;DHT22;10400;53.198;6.592;2023-06-14T02:50:58;15.80;1.00
20483;DHT22;10400;53.198;6.592;2023-06-14T02:53:23;15.80;1.00
20483;DHT22;10400;53.198;6.592;2023-06-14T02:55:49;15.80;1.00
20483;DHT22;10400;53.198;6.592;2023-06-14T02:58:15;15.80;99.90
20483;DHT22;10400;53.198;6.592;2023-06-14T03:00:42;15.70;1.00
20483;DHT22;10400;53.198;6.592;2023-06-14T03:03:07;15.80;1.00
20483;DHT22;10400;53.198;6.592;2023-06-14T03:05:44;15.80;38.30
20483;DHT22;10400;53.198;6.592;2023-06-14T03:08:13;15.80;99.90
20483;DHT22;10400;53.198;6.592;2023-06-14T03:10:48;15.80;1.00
20483;DHT22;10400;53.198;6.592;2023-06-14T03:13:17;15.80;99.90
20483;DHT22;10400;53.198;6.592;2023-06-14T03:15:46;15.80;99.90
20483;DHT22;10400;53.198;6.592;2023-06-14T03:18:13;15.80;1.00
20483;DHT22;10400;53.198;6.592;2023-06-14T03:20:40;15.70;1.00
20483;DHT22;10400;53.198;6.592;2023-06-14T03:23:06;15.70;1.00
20483;DHT22;10400;53.198;6.592;2023-06-14T03:25:32;15.70;1.00
20483;DHT22;10400;53.198;6.592;2023-06-14T03:28:01;15.70;99.90
20483;DHT22;10400;53.198;6.592;2023-06-14T03:30:27;15.80;1.00
20483;DHT22;10400;53.198;6.592;2023-06-14T03:32:53;15.70;1.00
20483;DHT22;10400;53.198;6.592;2023-06-14T03:35:21;15.80;1.00
20483;DHT22;10400;53.198;6.592;2023-06-14T03:37:47;15.70;99.10
20483;DHT22;10400;53.198;6.592;2023-06-14T03:40:14;15.70;8.20
20483;DHT22;10400;53.198;6.592;2023-06-14T03:42:40;15.70;1.00
20483;DHT22;10400;53.198;6.592;2023-06-14T03:45:06;15.70;99.90
20483;DHT22;10400;53.198;6.592;2023-06-14T03:47:33;15.70;99.90
20483;DHT22;10400;53.198;6.592;2023-06-14T03:49:59;15.70;1.00
20483;DHT22;10400;53.198;6.592;2023-06-14T03:52:25;15.60;1.00
20483;DHT22;10400;53.198;6.592;2023-06-14T03:54:51;15.60;1.00
20483;DHT22;10400;53.198;6.592;2023-06-14T03:57:17;15.70;94.50
20483;DHT22;10400;53.198;6.592;2023-06-14T03:59:43;15.70;99.90
20483;DHT22;10400;53.198;6.592;2023-06-14T04:02:09;15.70;99.90
20483;DHT22;10400;53.198;6.592;2023-06-14T04:04:35;15.70;99.90
20483;DHT22;10400;53.198;6.592;2023-06-14T04:07:01;15.80;99.90
20483;DHT22;10400;53.198;6.592;2023-06-14T04:09:31;15.70;99.90
20483;DHT22;10400;53.198;6.592;2023-06-14T04:11:56;15.60;99.90
20483;DHT22;10400;53.198;6.592;2023-06-14T04:14:22;15.60;99.90
20483;DHT22;10400;53.198;6.592;2023-06-14T04:16:48;15.70;1.00
20483;DHT22;10400;53.198;6.592;2023-06-14T04:19:15;15.70;1.00
20483;DHT22;10400;53.198;6.592;2023-06-14T04:21:41;15.70;1.00
20483;DHT22;10400;53.198;6.592;2023-06-14T04:24:07;15.80;1.00
20483;DHT22;10400;53.198;6.592;2023-06-14T04:26:44;15.80;1.00
20483;DHT22;10400;53.198;6.592;2023-06-14T04:29:14;15.80;1.00
20483;DHT22;10400;53.198;6.592;2023-06-14T04:31:45;15.80;1.00
20483;DHT22;10400;53.198;6.592;2023-06-14T04:34:11;15.90;1.00
20483;DHT22;10400;53.198;6.592;2023-06-14T04:36:41;15.90;1.00
20483;DHT22;10400;53.198;6.592;2023-06-14T04:39:08;15.90;1.00
20483;DHT22;10400;53.198;6.592;2023-06-14T04:41:34;15.90;1.00
20483;DHT22;10400;53.198;6.592;2023-06-14T04:44:01;16.00;1.00
20483;DHT22;10400;53.198;6.592;2023-06-14T04:46:30;16.20;1.00
20483;DHT22;10400;53.198;6.592;2023-06-14T04:48:58;16.30;99.90
20483;DHT22;10400;53.198;6.592;2023-06-14T04:51:28;16.40;99.90
20483;DHT22;10400;53.198;6.592;2023-06-14T04:53:58;16.40;99.90
20483;DHT22;10400;53.198;6.592;2023-06-14T04:56:24;16.40;99.90
20483;DHT22;10400;53.198;6.592;2023-06-14T04:58:51;16.40;99.90
20483;DHT22;10400;53.198;6.592;2023-06-14T05:01:18;16.40;99.90
20483;DHT22;10400;53.198;6.592;2023-06-14T05:03:44;16.50;99.90
20483;DHT22;10400;53.198;6.592;2023-06-14T05:06:11;16.60;16.50
20483;DHT22;10400;53.198;6.592;2023-06-14T05:08:37;16.60;1.00
20483;DHT22;10400;53.198;6.592;2023-06-14T05:11:03;16.80;1.00
20483;DHT22;10400;53.198;6.592;2023-06-14T05:13:30;16.90;1.00
20483;DHT22;10400;53.198;6.592;2023-06-14T05:15:58;17.00;99.90
20483;DHT22;10400;53.198;6.592;2023-06-14T05:18:24;17.00;99.90
20483;DHT22;10400;53.198;6.592;2023-06-14T05:20:51;17.00;99.90
20483;DHT22;10400;53.198;6.592;2023-06-14T05:23:17;17.10;1.00
20483;DHT22;10400;53.198;6.592;2023-06-14T05:25:43;17.10;1.00
20483;DHT22;10400;53.198;6.592;2023-06-14T05:28:09;17.20;82.30
20483;DHT22;10400;53.198;6.592;2023-06-14T05:30:35;17.30;1.00
20483;DHT22;10400;53.198;6.592;2023-06-14T05:33:01;17.30;99.90
20483;DHT22;10400;53.198;6.592;2023-06-14T05:35:26;17.40;99.90
20483;DHT22;10400;53.198;6.592;2023-06-14T05:37:52;17.30;99.90
20483;DHT22;10400;53.198;6.592;2023-06-14T05:40:19;17.40;1.00
20483;DHT22;10400;53.198;6.592;2023-06-14T05:42:45;17.50;99.90
20483;DHT22;10400;53.198;6.592;2023-06-14T05:45:11;17.50;1.00
20483;DHT22;10400;53.198;6.592;2023-06-14T05:47:37;17.50;1.00
20483;DHT22;10400;53.198;6.592;2023-06-14T05:50:03;17.60;99.90
20483;DHT22;10400;53.198;6.592;2023-06-14T05:52:28;17.70;99.90
20483;DHT22;10400;53.198;6.592;2023-06-14T05:54:55;17.70;1.00
20483;DHT22;10400;53.198;6.592;2023-06-14T05:57:20;17.80;1.00
20483;DHT22;10400;53.198;6.592;2023-06-14T05:59:46;17.80;99.90
20483;DHT22;10400;53.198;6.592;2023-06-14T06:02:12;18.00;99.90
20483;DHT22;10400;53.198;6.592;2023-06-14T06:04:37;18.00;99.90
20483;DHT22;10400;53.198;6.592;2023-06-14T06:07:03;18.20;1.00
20483;DHT22;10400;53.198;6.592;2023-06-14T06:09:29;18.30;1.00
20483;DHT22;10400;53.198;6.592;2023-06-14T06:11:55;18.40;99.90
20483;DHT22;10400;53.198;6.592;2023-06-14T06:14:21;18.60;99.90
20483;DHT22;10400;53.198;6.592;2023-06-14T06:16:46;18.60;1.00
20483;DHT22;10400;53.198;6.592;2023-06-14T06:19:12;18.70;1.00
20483;DHT22;10400;53.198;6.592;2023-06-14T06:21:38;18.70;99.90
20483;DHT22;10400;53.198;6.592;2023-06-14T06:24:05;18.90;1.00
20483;DHT22;10400;53.198;6.592;2023-06-14T06:26:31;19.00;99.90
20483;DHT22;10400;53.198;6.592;2023-06-14T06:28:58;19.10;99.90
20483;DHT22;10400;53.198;6.592;2023-06-14T06:31:24;19.20;97.20
20483;DHT22;10400;53.198;6.592;2023-06-14T06:33:51;19.20;1.00
20483;DHT22;10400;53.198;6.592;2023-06-14T06:36:16;19.30;1.00
20483;DHT22;10400;53.198;6.592;2023-06-14T06:38:42;19.40;1.00
20483;DHT22;10400;53.198;6.592;2023-06-14T06:41:08;19.50;1.00
20483;DHT22;10400;53.198;6.592;2023-06-14T06:43:36;19.60;1.00
20483;DHT22;10400;53.198;6.592;2023-06-14T06:46:02;19.80;1.00
20483;DHT22;10400;53.198;6.592;2023-06-14T06:48:27;19.80;99.90
20483;DHT22;10400;53.198;6.592;2023-06-14T06:50:53;20.00;99.90
20483;DHT22;10400;53.198;6.592;2023-06-14T06:53:19;20.10;99.90
20483;DHT22;10400;53.198;6.592;2023-06-14T06:55:45;20.30;99.90
20483;DHT22;10400;53.198;6.592;2023-06-14T06:58:11;20.40;1.00
20483;DHT22;10400;53.198;6.592;2023-06-14T07:00:37;20.50;1.00
20483;DHT22;10400;53.198;6.592;2023-06-14T07:03:02;20.70;1.00
20483;DHT22;10400;53.198;6.592;2023-06-14T07:05:29;20.80;1.00
20483;DHT22;10400;53.198;6.592;2023-06-14T07:07:56;20.80;1.00
20483;DHT22;10400;53.198;6.592;2023-06-14T07:10:22;20.80;1.00
20483;DHT22;10400;53.198;6.592;2023-06-14T07:12:47;20.90;1.00
20483;DHT22;10400;53.198;6.592;2023-06-14T07:15:13;20.90;1.00
20483;DHT22;10400;53.198;6.592;2023-06-14T07:17:39;20.90;1.00
20483;DHT22;10400;53.198;6.592;2023-06-14T07:20:07;21.00;1.00
20483;DHT22;10400;53.198;6.592;2023-06-14T07:22:42;20.90;1.00
20483;DHT22;10400;53.198;6.592;2023-06-14T07:25:12;21.10;1.00
20483;DHT22;10400;53.198;6.592;2023-06-14T07:27:41;21.10;1.00
20483;DHT22;10400;53.198;6.592;2023-06-14T07:30:08;21.10;1.00
20483;DHT22;10400;53.198;6.592;2023-06-14T07:32:34;21.00;1.00
20483;DHT22;10400;53.198;6.592;2023-06-14T07:35:00;21.20;1.00
20483;DHT22;10400;53.198;6.592;2023-06-14T07:37:25;21.40;1.00
20483;DHT22;10400;53.198;6.592;2023-06-14T07:39:51;21.40;99.90
20483;DHT22;10400;53.198;6.592;2023-06-14T07:42:17;21.60;1.00
20483;DHT22;10400;53.198;6.592;2023-06-14T07:44:42;21.70;99.90
20483;DHT22;10400;53.198;6.592;2023-06-14T07:47:08;21.80;99.90
20483;DHT22;10400;53.198;6.592;2023-06-14T07:49:33;21.80;99.90
20483;DHT22;10400;53.198;6.592;2023-06-14T07:51:59;21.90;99.90
20483;DHT22;10400;53.198;6.592;2023-06-14T07:54:25;21.90;99.90
20483;DHT22;10400;53.198;6.592;2023-06-14T07:56:52;22.00;99.90
20483;DHT22;10400;53.198;6.592;2023-06-14T07:59:18;22.10;99.90
20483;DHT22;10400;53.198;6.592;2023-06-14T08:01:44;22.00;99.90
20483;DHT22;10400;53.198;6.592;2023-06-14T08:04:14;22.10;99.90
20483;DHT22;10400;53.198;6.592;2023-06-14T08:06:40;22.20;99.90
20483;DHT22;10400;53.198;6.592;2023-06-14T08:09:09;22.30;99.90
20483;DHT22;10400;53.198;6.592;2023-06-14T08:11:36;22.30;99.90
20483;DHT22;10400;53.198;6.592;2023-06-14T08:14:01;22.40;99.90
20483;DHT22;10400;53.198;6.592;2023-06-14T08:16:27;22.50;99.90
20483;DHT22;10400;53.198;6.592;2023-06-14T08:18:53;22.50;99.90
20483;DHT22;10400;53.198;6.592;2023-06-14T08:21:18;22.60;99.90
20483;DHT22;10400;53.198;6.592;2023-06-14T08:23:44;22.70;99.90
20483;DHT22;10400;53.198;6.592;2023-06-14T08:26:10;22.70;99.90
20483;DHT22;10400;53.198;6.592;2023-06-14T08:28:36;22.80;99.90
20483;DHT22;10400;53.198;6.592;2023-06-14T08:31:02;22.80;99.90
20483;DHT22;10400;53.198;6.592;2023-06-14T08:33:28;22.80;99.90
20483;DHT22;10400;53.198;6.592;2023-06-14T08:35:53;22.90;99.90
20483;DHT22;10400;53.198;6.592;2023-06-14T08:38:19;22.90;99.90
20483;DHT22;10400;53.198;6.592;2023-06-14T08:40:48;22.90;99.90
20483;DHT22;10400;53.198;6.592;2023-06-14T08:43:15;22.80;99.90
20483;DHT22;10400;53.198;6.592;2023-06-14T08:45:41;23.00;99.90
20483;DHT22;10400;53.198;6.592;2023-06-14T08:48:08;23.00;99.90
20483;DHT22;10400;53.198;6.592;2023-06-14T08:50:34;23.10;99.90
20483;DHT22;10400;53.198;6.592;2023-06-14T08:53:02;23.20;99.90
20483;DHT22;10400;53.198;6.592;2023-06-14T08:55:29;23.30;99.90
20483;DHT22;10400;53.198;6.592;2023-06-14T08:57:57;23.50;99.90
20483;DHT22;10400;53.198;6.592;2023-06-14T09:00:24;23.40;99.90
20483;DHT22;10400;53.198;6.592;2023-06-14T09:02:51;23.40;99.90
20483;DHT22;10400;53.198;6.592;2023-06-14T09:05:23;23.40;99.90
20483;DHT22;10400;53.198;6.592;2023-06-14T09:07:49;23.40;99.90
20483;DHT22;10400;53.198;6.592;2023-06-14T09:10:16;23.50;99.90
20483;DHT22;10400;53.198;6.592;2023-06-14T09:12:42;23.40;99.90
20483;DHT22;10400;53.198;6.592;2023-06-14T09:15:09;23.50;99.90
20483;DHT22;10400;53.198;6.592;2023-06-14T09:17:36;23.70;99.90
20483;DHT22;10400;53.198;6.592;2023-06-14T09:20:03;23.70;99.90
20483;DHT22;10400;53.198;6.592;2023-06-14T09:22:34;23.70;99.90
20483;DHT22;10400;53.198;6.592;2023-06-14T09:25:00;23.80;99.90
20483;DHT22;10400;53.198;6.592;2023-06-14T09:27:28;23.70;99.90
20483;DHT22;10400;53.198;6.592;2023-06-14T09:29:54;23.60;99.90
20483;DHT22;10400;53.198;6.592;2023-06-14T09:32:21;23.60;99.90
20483;DHT22;10400;53.198;6.592;2023-06-14T09:34:47;23.50;99.90
20483;DHT22;10400;53.198;6.592;2023-06-14T09:37:13;23.60;99.90
20483;DHT22;10400;53.198;6.592;2023-06-14T09:39:51;23.60;99.90
20483;DHT22;10400;53.198;6.592;2023-06-14T09:42:17;23.60;99.90
20483;DHT22;10400;53.198;6.592;2023-06-14T09:44:49;23.80;99.90
20483;DHT22;10400;53.198;6.592;2023-06-14T09:47:16;24.00;99.90
20483;DHT22;10400;53.198;6.592;2023-06-14T09:49:42;24.00;99.90
20483;DHT22;10400;53.198;6.592;2023-06-14T09:52:13;24.10;99.90
20483;DHT22;10400;53.198;6.592;2023-06-14T09:54:43;24.00;99.90
20483;DHT22;10400;53.198;6.592;2023-06-14T09:57:12;24.20;99.90
20483;DHT22;10400;53.198;6.592;2023-06-14T09:59:42;24.20;99.90
20483;DHT22;10400;53.198;6.592;2023-06-14T10:04:50;24.20;99.90
20483;DHT22;10400;53.198;6.592;2023-06-14T10:07:20;24.10;99.90
20483;DHT22;10400;53.198;6.592;2023-06-14T10:09:50;24.20;99.90
20483;DHT22;10400;53.198;6.592;2023-06-14T10:12:17;24.20;99.90
20483;DHT22;10400;53.198;6.592;2023-06-14T10:14:51;24.10;99.90
20483;DHT22;10400;53.198;6.592;2023-06-14T10:17:32;24.10;99.90
20483;DHT22;10400;53.198;6.592;2023-06-14T10:20:16;24.20;99.90
20483;DHT22;10400;53.198;6.592;2023-06-14T10:23:11;24.20;99.90
20483;DHT22;10400;53.198;6.592;2023-06-14T10:25:38;24.20;99.90
20483;DHT22;10400;53.198;6.592;2023-06-14T10:28:14;24.40;99.90
20483;DHT22;10400;53.198;6.592;2023-06-14T10:31:11;24.60;99.90
20483;DHT22;10400;53.198;6.592;2023-06-14T10:33:50;24.60;99.90
20483;DHT22;10400;53.198;6.592;2023-06-14T10:39:17;24.30;99.90
20483;DHT22;10400;53.198;6.592;2023-06-14T10:41:53;24.50;99.90
20483;DHT22;10400;53.198;6.592;2023-06-14T10:46:54;24.70;99.90
20483;DHT22;10400;53.198;6.592;2023-06-14T10:52:13;24.70;99.90
20483;DHT22;10400;53.198;6.592;2023-06-14T10:55:02;25.00;99.90
20483;DHT22;10400;53.198;6.592;2023-06-14T10:57:32;25.10;99.90
20483;DHT22;10400;53.198;6.592;2023-06-14T11:00:00;25.10;99.90
20483;DHT22;10400;53.198;6.592;2023-06-14T11:05:29;25.00;99.90
20483;DHT22;10400;53.198;6.592;2023-06-14T11:10:50;25.00;99.90
20483;DHT22;10400;53.198;6.592;2023-06-14T11:13:16;25.00;99.90
20483;DHT22;10400;53.198;6.592;2023-06-14T11:15:47;24.90;99.90
20483;DHT22;10400;53.198;6.592;2023-06-14T11:18:13;25.10;99.90
20483;DHT22;10400;53.198;6.592;2023-06-14T11:20:40;25.30;99.90
20483;DHT22;10400;53.198;6.592;2023-06-14T11:23:05;25.30;99.90
20483;DHT22;10400;53.198;6.592;2023-06-14T11:25:31;25.60;99.90
20483;DHT22;10400;53.198;6.592;2023-06-14T11:27:57;25.50;99.90
20483;DHT22;10400;53.198;6.592;2023-06-14T11:30:24;25.70;99.90
20483;DHT22;10400;53.198;6.592;2023-06-14T11:32:51;25.50;99.90
20483;DHT22;10400;53.198;6.592;2023-06-14T11:35:18;25.30;99.90
20483;DHT22;10400;53.198;6.592;2023-06-14T11:37:44;25.20;99.90
20483;DHT22;10400;53.198;6.592;2023-06-14T11:40:11;25.20;99.90
20483;DHT22;10400;53.198;6.592;2023-06-14T11:42:40;25.30;99.90
20483;DHT22;10400;53.198;6.592;2023-06-14T11:45:10;25.60;99.90
20483;DHT22;10400;53.198;6.592;2023-06-14T11:47:38;25.40;99.90
20483;DHT22;10400;53.198;6.592;2023-06-14T11:50:06;25.20;99.90
20483;DHT22;10400;53.198;6.592;2023-06-14T11:52:33;25.40;99.90
20483;DHT22;10400;53.198;6.592;2023-06-14T11:54:59;25.60;99.90
20483;DHT22;10400;53.198;6.592;2023-06-14T11:57:25;25.40;99.90
20483;DHT22;10400;53.198;6.592;2023-06-14T11:59:51;25.40;99.90
20483;DHT22;10400;53.198;6.592;2023-06-14T12:02:19;25.80;99.90
20483;DHT22;10400;53.198;6.592;2023-06-14T12:04:47;25.90;99.90
20483;DHT22;10400;53.198;6.592;2023-06-14T12:07:17;25.70;99.90
20483;DHT22;10400;53.198;6.592;2023-06-14T12:12:24;26.00;99.90
20483;DHT22;10400;53.198;6.592;2023-06-14T12:14:55;26.00;99.90
20483;DHT22;10400;53.198;6.592;2023-06-14T12:17:22;26.00;99.90
20483;DHT22;10400;53.198;6.592;2023-06-14T12:19:49;25.90;99.90
20483;DHT22;10400;53.198;6.592;2023-06-14T12:22:17;26.00;99.90
20483;DHT22;10400;53.198;6.592;2023-06-14T12:24:43;26.00;99.90
20483;DHT22;10400;53.198;6.592;2023-06-14T12:27:09;26.00;99.90
20483;DHT22;10400;53.198;6.592;2023-06-14T12:29:37;26.10;99.90
20483;DHT22;10400;53.198;6.592;2023-06-14T12:32:03;26.30;99.90
20483;DHT22;10400;53.198;6.592;2023-06-14T12:34:28;26.30;99.90
20483;DHT22;10400;53.198;6.592;2023-06-14T12:36:54;26.40;99.90
20483;DHT22;10400;53.198;6.592;2023-06-14T12:39:20;26.60;99.90
20483;DHT22;10400;53.198;6.592;2023-06-14T12:41:49;26.70;99.90
20483;DHT22;10400;53.198;6.592;2023-06-14T12:44:15;26.80;99.90
20483;DHT22;10400;53.198;6.592;2023-06-14T12:46:42;26.90;99.90
20483;DHT22;10400;53.198;6.592;2023-06-14T12:49:09;26.80;99.90
20483;DHT22;10400;53.198;6.592;2023-06-14T12:51:35;26.60;99.90
20483;DHT22;10400;53.198;6.592;2023-06-14T12:54:01;26.30;99.90
20483;DHT22;10400;53.198;6.592;2023-06-14T12:56:26;26.50;99.90
20483;DHT22;10400;53.198;6.592;2023-06-14T12:58:52;26.70;99.90
20483;DHT22;10400;53.198;6.592;2023-06-14T13:01:19;26.90;99.90
20483;DHT22;10400;53.198;6.592;2023-06-14T13:03:48;27.00;99.90
20483;DHT22;10400;53.198;6.592;2023-06-14T13:06:15;27.00;99.90
20483;DHT22;10400;53.198;6.592;2023-06-14T13:08:40;27.00;99.90
20483;DHT22;10400;53.198;6.592;2023-06-14T13:11:06;27.10;99.90
20483;DHT22;10400;53.198;6.592;2023-06-14T13:13:34;26.60;99.90
20483;DHT22;10400;53.198;6.592;2023-06-14T13:16:00;26.80;99.90
20483;DHT22;10400;53.198;6.592;2023-06-14T13:18:26;27.00;99.90
20483;DHT22;10400;53.198;6.592;2023-06-14T13:20:59;27.10;99.90
20483;DHT22;10400;53.198;6.592;2023-06-14T13:23:27;27.30;99.90
20483;DHT22;10400;53.198;6.592;2023-06-14T13:25:53;27.10;99.90
20483;DHT22;10400;53.198;6.592;2023-06-14T13:28:18;27.00;99.90
20483;DHT22;10400;53.198;6.592;2023-06-14T13:30:47;26.90;99.90
20483;DHT22;10400;53.198;6.592;2023-06-14T13:33:13;27.00;99.90
20483;DHT22;10400;53.198;6.592;2023-06-14T13:35:39;27.00;99.90
20483;DHT22;10400;53.198;6.592;2023-06-14T13:38:05;27.00;99.90
20483;DHT22;10400;53.198;6.592;2023-06-14T13:40:31;26.70;99.90
20483;DHT22;10400;53.198;6.592;2023-06-14T13:42:56;26.90;99.90
20483;DHT22;10400;53.198;6.592;2023-06-14T13:45:22;27.00;99.90
20483;DHT22;10400;53.198;6.592;2023-06-14T13:47:48;26.90;99.90
20483;DHT22;10400;53.198;6.592;2023-06-14T13:50:14;26.40;99.90
20483;DHT22;10400;53.198;6.592;2023-06-14T13:52:40;26.10;99.90
20483;DHT22;10400;53.198;6.592;2023-06-14T13:55:06;26.20;99.90
20483;DHT22;10400;53.198;6.592;2023-06-14T13:57:32;26.40;99.90
20483;DHT22;10400;53.198;6.592;2023-06-14T13:59:58;26.50;99.90
20483;DHT22;10400;53.198;6.592;2023-06-14T14:02:27;26.80;99.90
20483;DHT22;10400;53.198;6.592;2023-06-14T14:04:55;26.80;99.90
20483;DHT22;10400;53.198;6.592;2023-06-14T14:07:20;26.60;99.90
20483;DHT22;10400;53.198;6.592;2023-06-14T14:09:47;26.80;99.90
20483;DHT22;10400;53.198;6.592;2023-06-14T14:12:32;27.30;99.90
20483;DHT22;10400;53.198;6.592;2023-06-14T14:15:37;27.70;99.90
20483;DHT22;10400;53.198;6.592;2023-06-14T14:18:06;27.50;99.90
20483;DHT22;10400;53.198;6.592;2023-06-14T14:20:39;27.50;99.90
20483;DHT22;10400;53.198;6.592;2023-06-14T14:23:07;27.40;99.90
20483;DHT22;10400;53.198;6.592;2023-06-14T14:26:04;27.30;99.90
20483;DHT22;10400;53.198;6.592;2023-06-14T14:28:34;27.30;99.90
20483;DHT22;10400;53.198;6.592;2023-06-14T14:31:01;26.70;99.90
20483;DHT22;10400;53.198;6.592;2023-06-14T14:33:29;26.90;99.90
20483;DHT22;10400;53.198;6.592;2023-06-14T14:36:11;27.20;99.90
20483;DHT22;10400;53.198;6.592;2023-06-14T14:38:41;27.50;99.90
20483;DHT22;10400;53.198;6.592;2023-06-14T14:41:10;27.40;99.90
20483;DHT22;10400;53.198;6.592;2023-06-14T14:43:36;27.10;99.90
20483;DHT22;10400;53.198;6.592;2023-06-14T14:46:05;26.90;99.90
20483;DHT22;10400;53.198;6.592;2023-06-14T14:52:14;26.90;99.90
20483;DHT22;10400;53.198;6.592;2023-06-14T14:54:43;27.00;99.90
20483;DHT22;10400;53.198;6.592;2023-06-14T14:57:18;27.10;99.90
20483;DHT22;10400;53.198;6.592;2023-06-14T14:59:44;27.10;99.90
20483;DHT22;10400;53.198;6.592;2023-06-14T15:02:09;27.10;99.90
20483;DHT22;10400;53.198;6.592;2023-06-14T15:04:40;27.10;99.90
20483;DHT22;10400;53.198;6.592;2023-06-14T15:07:09;27.20;99.90
20483;DHT22;10400;53.198;6.592;2023-06-14T15:09:35;27.40;99.90
20483;DHT22;10400;53.198;6.592;2023-06-14T15:12:03;27.60;99.90
20483;DHT22;10400;53.198;6.592;2023-06-14T15:14:32;27.70;99.90
20483;DHT22;10400;53.198;6.592;2023-06-14T15:16:58;27.90;99.90
20483;DHT22;10400;53.198;6.592;2023-06-14T15:19:24;28.20;99.90
20483;DHT22;10400;53.198;6.592;2023-06-14T15:21:49;28.40;99.90
20483;DHT22;10400;53.198;6.592;2023-06-14T15:24:15;28.20;99.90
20483;DHT22;10400;53.198;6.592;2023-06-14T15:26:43;27.60;99.90
20483;DHT22;10400;53.198;6.592;2023-06-14T15:29:11;27.30;99.90
20483;DHT22;10400;53.198;6.592;2023-06-14T15:31:37;27.00;99.90
20483;DHT22;10400;53.198;6.592;2023-06-14T15:34:03;26.70;99.90
20483;DHT22;10400;53.198;6.592;2023-06-14T15:36:31;26.50;99.90
20483;DHT22;10400;53.198;6.592;2023-06-14T15:39:03;26.30;99.90
20483;DHT22;10400;53.198;6.592;2023-06-14T15:41:29;26.30;99.90
20483;DHT22;10400;53.198;6.592;2023-06-14T15:43:58;26.60;99.90
20483;DHT22;10400;53.198;6.592;2023-06-14T15:46:23;27.00;99.90
20483;DHT22;10400;53.198;6.592;2023-06-14T15:48:49;27.10;99.90
20483;DHT22;10400;53.198;6.592;2023-06-14T15:51:15;27.40;99.90
20483;DHT22;10400;53.198;6.592;2023-06-14T15:53:41;27.30;99.90
20483;DHT22;10400;53.198;6.592;2023-06-14T15:56:12;27.50;99.90
20483;DHT22;10400;53.198;6.592;2023-06-14T15:58:37;27.90;99.90
20483;DHT22;10400;53.198;6.592;2023-06-14T16:01:21;28.00;99.90
20483;DHT22;10400;53.198;6.592;2023-06-14T16:03:50;28.00;99.90
20483;DHT22;10400;53.198;6.592;2023-06-14T16:06:22;27.80;99.90